Stations météo

réclame
Mon MeteoGroup
Chateau Chinon, France (7270): Température de l'air & dewpoint: 11.01.2018 07:00:00 - 17.01.2018 07:00:00 (CET)Chateau Chinon, France (7270): Vitesse du vent & gusts: 11.01.2018 07:00:00 - 17.01.2018 07:00:00 (CET)Chateau Chinon, France (7270): Direction du vent: 11.01.2018 07:00:00 - 17.01.2018 07:00:00 (CET)Chateau Chinon, France (7270): Quantités de précipitations: 11.01.2018 07:00:00 - 17.01.2018 07:00:00 (CET)
Date & Time tt [°C] td [°C] ff [km/h] ff [knt] fx [km/h] fx [knt] dd rr [mm]
17.01.2018 07:00:00 0,8 0,2 9 5 29 16 WNW -
17.01.2018 06:00:00 0,5 0,1 8 4 26 14 W 0,0
17.01.2018 05:00:00 0,7 0,4 8 4 28 15 WNW 0,4
17.01.2018 04:00:00 1,1 -0,2 15 8 41 22 WNW 0,8
17.01.2018 03:00:00 3,3 1,7 9 5 31 17 NW 0,0
17.01.2018 02:00:00 3,1 2,1 9 5 39 21 W 0,4
17.01.2018 01:00:00 4,3 1,7 9 5 35 19 WNW -
17.01.2018 00:00:00 4,5 2,5 9 5 41 22 NW 0,0
16.01.2018 23:00:00 4,7 2,9 9 5 41 22 WNW 0,0
16.01.2018 22:00:00 4,7 3,0 9 5 31 17 WNW 0,0
16.01.2018 21:00:00 5,5 3,3 9 5 37 20 WNW 0,0
16.01.2018 20:00:00 5,7 3,2 9 5 39 21 WNW 0,2
16.01.2018 19:00:00 6,3 4,3 11 6 37 20 WNW -
16.01.2018 18:00:00 6,5 5,6 8 4 29 16 W 0,0
16.01.2018 17:00:00 6,4 5,2 8 4 35 19 WNW 0,4
16.01.2018 16:00:00 7,0 4,8 9 5 31 17 WNW 0,0
16.01.2018 15:00:00 7,0 4,8 8 4 41 22 WNW 0,0
16.01.2018 14:00:00 7,5 4,4 9 5 46 25 WNW 0,0
16.01.2018 13:00:00 6,8 6,8 11 6 41 22 WNW -
16.01.2018 12:00:00 6,5 6,4 11 6 42 23 WNW 0,2
16.01.2018 11:00:00 6,4 6,4 11 6 37 20 WNW 0,4
16.01.2018 10:00:00 6,3 6,3 11 6 52 28 WNW 0,6
16.01.2018 09:00:00 6,1 6,1 11 6 46 25 W 0,6
16.01.2018 08:00:00 6,1 6,1 11 6 37 20 W 0,6
16.01.2018 07:00:00 6,0 5,7 8 4 41 22 W -
16.01.2018 06:00:00 5,9 5,8 9 5 41 22 W 0,2
16.01.2018 05:00:00 5,9 5,8 9 5 41 22 WNW 0,6
16.01.2018 04:00:00 5,9 5,9 11 6 48 26 W 0,4
16.01.2018 03:00:00 5,9 5,9 16 9 50 27 W 0,0
16.01.2018 02:00:00 5,8 5,8 9 5 41 22 W 1,0
16.01.2018 01:00:00 5,3 5,3 13 7 50 27 W -
16.01.2018 00:00:00 5,0 5,0 13 7 52 28 WSW 0,2
15.01.2018 23:00:00 4,6 4,6 16 9 54 29 WSW 1,0
15.01.2018 22:00:00 4,3 4,2 16 9 65 35 WSW 1,0
15.01.2018 21:00:00 4,1 4,0 21 11 65 35 SW 0,9
15.01.2018 20:00:00 3,9 3,5 28 15 70 38 SSW 0,8
15.01.2018 19:00:00 3,5 3,2 29 16 67 36 SSW -
15.01.2018 18:00:00 3,5 2,8 26 14 72 39 SW 2,0
15.01.2018 17:00:00 4,0 3,0 21 11 59 32 SW 1,0
15.01.2018 16:00:00 4,7 2,4 24 13 59 32 SSW 0,0
15.01.2018 15:00:00 4,8 2,0 18 10 44 24 SW 0,0
15.01.2018 14:00:00 4,6 1,6 16 9 52 28 SW 0,0
15.01.2018 13:00:00 4,7 0,8 18 10 46 25 SW -
15.01.2018 12:00:00 4,7 1,0 21 11 50 27 SSW 0,0
15.01.2018 11:00:00 3,8 1,3 15 8 37 20 SW 0,0
15.01.2018 10:00:00 3,4 1,8 9 5 24 13 SW 0,0
15.01.2018 09:00:00 3,4 1,6 5 3 26 14 W 0,0
15.01.2018 08:00:00 3,6 2,0 8 4 24 13 WSW 0,0
15.01.2018 07:00:00 3,7 2,1 8 4 18 10 WSW -
15.01.2018 06:00:00 3,8 2,0 4 2 16 9 W 0,0
15.01.2018 05:00:00 3,9 2,3 4 2 15 8 W 0,0
15.01.2018 04:00:00 3,9 2,3 4 2 15 8 W 0,0
15.01.2018 03:00:00 3,8 2,2 4 2 22 12 W 0,0
15.01.2018 02:00:00 4,8 1,8 8 4 28 15 SW 0,0
15.01.2018 01:00:00 5,2 1,5 15 8 35 19 SW -
15.01.2018 00:00:00 5,7 1,4 13 7 24 13 SSW 0,0
14.01.2018 23:00:00 5,4 1,3 8 4 18 10 S 0,0
14.01.2018 22:00:00 5,3 1,0 4 2 15 8 S 0,0
14.01.2018 21:00:00 4,3 1,2 5 3 15 8 SE 0,0
14.01.2018 20:00:00 4,5 1,5 8 4 16 9 ESE 0,0
14.01.2018 19:00:00 4,2 1,9 5 3 13 7 E -
14.01.2018 18:00:00 4,3 2,2 4 2 11 6 E 0,0
14.01.2018 17:00:00 5,1 2,1 4 2 11 6 E 0,0
14.01.2018 16:00:00 6,5 2,4 2 1 11 6 ESE 0,0
14.01.2018 15:00:00 6,4 2,7 4 2 15 8 E 0,0
14.01.2018 14:00:00 7,3 2,6 4 2 16 9 SSE 0,0
14.01.2018 13:00:00 6,9 1,8 5 3 16 9 S -
14.01.2018 12:00:00 6,0 1,7 5 3 16 9 S 0,0
14.01.2018 11:00:00 7,0 2,1 5 3 21 11 SE 0,0
14.01.2018 10:00:00 5,4 0,9 8 4 24 13 S 0,0
14.01.2018 09:00:00 3,8 0,7 9 5 21 11 SE 0,0
14.01.2018 08:00:00 3,0 0,1 5 3 13 7 E 0,0
14.01.2018 07:00:00 3,3 0,2 5 3 13 7 ESE -
14.01.2018 06:00:00 3,0 0,1 5 3 13 7 ESE 0,0
14.01.2018 05:00:00 2,6 0,0 8 4 13 7 ESE 0,0
14.01.2018 04:00:00 2,7 -0,1 5 3 15 8 ESE 0,0
14.01.2018 03:00:00 3,8 -0,4 8 4 15 8 SE 0,0
14.01.2018 02:00:00 2,6 -0,9 8 4 16 9 SE 0,0
14.01.2018 01:00:00 3,3 -1,5 8 4 16 9 SE -
14.01.2018 00:00:00 3,7 -1,5 5 3 21 11 SE 0,0
13.01.2018 23:00:00 3,2 -1,9 9 5 24 13 SE 0,0
13.01.2018 22:00:00 2,3 -1,5 8 4 22 12 ESE 0,0
13.01.2018 21:00:00 2,0 -0,6 8 4 22 12 ESE 0,0
13.01.2018 20:00:00 1,7 0,1 8 4 22 12 E 0,0
13.01.2018 19:00:00 0,7 -0,2 8 4 21 11 E -
13.01.2018 18:00:00 0,1 -0,3 9 5 16 9 E 0,0
13.01.2018 17:00:00 0,4 -0,2 9 5 24 13 E 0,0
13.01.2018 16:00:00 1,9 0,3 9 5 21 11 E 0,0
13.01.2018 15:00:00 3,3 1,0 8 4 22 12 E 0,0
13.01.2018 14:00:00 4,2 1,6 4 2 13 7 E 0,0
13.01.2018 13:00:00 3,5 1,4 4 2 13 7 E -
13.01.2018 12:00:00 2,4 0,6 4 2 15 8 E 0,0
13.01.2018 11:00:00 1,1 0,4 5 3 13 7 E 0,0
13.01.2018 10:00:00 0,0 -0,1 5 3 9 5 E 0,0
13.01.2018 09:00:00 -1,0 -1,0 4 2 13 7 E 0,0
13.01.2018 08:00:00 -1,5 -1,8 2 1 5 3 E 0,0
13.01.2018 07:00:00 -0,8 -0,9 0 0 9 5 N -
13.01.2018 06:00:00 -0,3 -0,4 2 1 15 8 ESE 0,0
13.01.2018 05:00:00 0,2 0,1 4 2 15 8 E 0,0
13.01.2018 04:00:00 0,8 0,8 5 3 13 7 E 0,0
13.01.2018 03:00:00 0,6 0,6 5 3 11 6 E 0,0
13.01.2018 02:00:00 0,4 0,4 5 3 9 5 E 0,0
13.01.2018 01:00:00 0,5 0,5 4 2 9 5 E -
13.01.2018 00:00:00 0,8 0,7 2 1 9 5 E 0,0
12.01.2018 23:00:00 1,0 1,0 4 2 13 7 E 0,0
12.01.2018 22:00:00 1,0 0,9 4 2 15 8 E 0,0
12.01.2018 21:00:00 1,5 1,2 5 3 9 5 ENE 0,0
12.01.2018 20:00:00 1,3 1,2 0 0 9 5 N 0,0
12.01.2018 19:00:00 1,7 1,3 4 2 8 4 ENE -
12.01.2018 18:00:00 2,2 1,6 2 1 11 6 E 0,0
12.01.2018 17:00:00 3,6 2,7 4 2 11 6 ENE 0,0
12.01.2018 16:00:00 4,8 3,5 4 2 15 8 ENE 0,0
12.01.2018 15:00:00 5,2 4,3 5 3 13 7 NE 0,0
12.01.2018 14:00:00 5,3 4,7 5 3 13 7 NE 0,0
12.01.2018 13:00:00 5,0 4,7 5 3 13 7 NE -
12.01.2018 12:00:00 4,5 4,4 2 1 13 7 N 0,0
12.01.2018 11:00:00 3,9 3,9 8 4 13 7 NE 0,0
12.01.2018 10:00:00 3,5 3,5 5 3 15 8 NNE 0,0
12.01.2018 09:00:00 2,9 2,8 8 4 18 10 NE 0,0
12.01.2018 08:00:00 2,6 2,6 5 3 16 9 NNE 0,0
12.01.2018 07:00:00 3,1 3,1 5 3 18 10 NE -
12.01.2018 06:00:00 3,4 3,4 4 2 16 9 ENE 0,0
12.01.2018 05:00:00 3,4 3,3 5 3 15 8 NNE 0,0
12.01.2018 04:00:00 3,8 3,8 2 1 11 6 NE 0,0
12.01.2018 03:00:00 3,8 3,8 2 1 5 3 NE 0,0
12.01.2018 02:00:00 3,7 3,6 4 2 8 4 ENE 0,0
12.01.2018 01:00:00 3,6 3,6 0 0 4 2 N -
12.01.2018 00:00:00 3,7 3,7 0 0 4 2 N 0,6
11.01.2018 23:00:00 3,7 3,6 2 1 8 4 ENE 2,0
11.01.2018 22:00:00 4,0 3,9 2 1 5 3 ENE 0,0
11.01.2018 21:00:00 3,9 3,8 0 0 8 4 N 0,0
11.01.2018 20:00:00 4,2 4,1 0 0 8 4 N 0,0
11.01.2018 19:00:00 4,2 4,1 2 1 9 5 WNW -
11.01.2018 18:00:00 4,4 4,1 0 0 5 3 N 0,0
11.01.2018 17:00:00 4,5 4,2 2 1 9 5 WNW 0,0
11.01.2018 16:00:00 4,5 4,1 4 2 9 5 WNW 0,0
11.01.2018 15:00:00 4,9 4,5 2 1 8 4 NW 0,0
11.01.2018 14:00:00 5,5 5,5 4 2 9 5 W 0,0
11.01.2018 13:00:00 4,7 4,6 4 2 8 4 W -
11.01.2018 12:00:00 4,3 4,3 0 0 9 5 N 0,2
11.01.2018 11:00:00 4,3 3,9 2 1 11 6 WSW 0,0
11.01.2018 10:00:00 4,0 3,7 4 2 9 5 S 0,0
11.01.2018 09:00:00 3,8 3,2 5 3 18 10 SSW 0,6
11.01.2018 08:00:00 3,7 3,1 5 3 16 9 S 0,4
11.01.2018 07:00:00 3,7 3,1 4 2 11 6 S -

tt = Température de l'air
td = dewpoint
ff = Vitesse du vent
fx = gusts
dd = Direction du vent
rr = Quantités de précipitations

stations d'obs. à proximité